Time;durP1;ratioP1;P1;durP2;ratioP2;P2;SDS_P1;SDS_P2;PMS_P1;PMS_P2;Temp;Humidity;BMP_temperature;BMP_pressure;BME280_temperature;BME280_humidity;BME280_pressure;Samples;Min_cycle;Max_cycle;Signal;HPM_P1;HPM_P2
2023/10/24 00:00:54;;;;;;;16.00;7.50;;;11.70;99.90;;;;;;5088548;27;20457;-88
2023/10/24 00:03:20;;;;;;;16.55;7.03;;;11.70;99.90;;;;;;5104855;27;20046;-88
2023/10/24 00:05:47;;;;;;;13.73;7.18;;;11.70;99.90;;;;;;5105316;27;20991;-87
2023/10/24 00:08:13;;;;;;;17.27;7.47;;;11.70;99.90;;;;;;5104182;27;20035;-88
2023/10/24 00:10:39;;;;;;;14.88;8.25;;;11.70;99.90;;;;;;5088421;27;20039;-88
2023/10/24 00:13:05;;;;;;;13.98;6.28;;;11.70;99.90;;;;;;5086711;27;20024;-87
2023/10/24 00:15:30;;;;;;;20.65;18.13;;;11.70;99.90;;;;;;5104750;27;20031;-88
2023/10/24 00:17:56;;;;;;;15.18;8.07;;;11.70;99.90;;;;;;5086798;27;20420;-88
2023/10/24 00:20:22;;;;;;;13.65;7.70;;;11.70;99.90;;;;;;5087550;27;20520;-88
2023/10/24 00:22:47;;;;;;;21.08;18.13;;;11.70;99.90;;;;;;5083715;28;20038;-87
2023/10/24 00:25:14;;;;;;;19.38;16.75;;;11.70;99.90;;;;;;5079634;28;20548;-88
2023/10/24 00:27:39;;;;;;;21.55;19.30;;;11.80;99.90;;;;;;5094475;28;20062;-88
2023/10/24 00:30:06;;;;;;;12.15;6.55;;;11.80;99.90;;;;;;5077621;28;20482;-88
2023/10/24 00:32:31;;;;;;;13.43;7.15;;;11.80;99.90;;;;;;5077458;28;20031;-88
2023/10/24 00:34:57;;;;;;;13.00;7.10;;;11.70;99.90;;;;;;5094340;28;20040;-88
2023/10/24 00:37:22;;;;;;;14.60;6.68;;;11.70;99.90;;;;;;5094309;28;20042;-88
2023/10/24 00:39:48;;;;;;;15.38;7.50;;;11.70;99.90;;;;;;5077193;28;20035;-88
2023/10/24 00:42:14;;;;;;;14.43;6.68;;;11.70;99.90;;;;;;5094197;28;20036;-88
2023/10/24 00:44:39;;;;;;;13.27;6.78;;;11.70;99.90;;;;;;5094357;28;20433;-88
2023/10/24 00:47:05;;;;;;;17.00;7.60;;;11.70;99.90;;;;;;5094333;28;20035;-88
2023/10/24 00:49:32;;;;;;;13.40;6.80;;;11.70;99.90;;;;;;5077006;28;20511;-88
2023/10/24 00:51:58;;;;;;;15.05;7.53;;;11.70;99.90;;;;;;5076765;28;20123;-88
2023/10/24 00:54:26;;;;;;;16.10;7.63;;;11.70;99.90;;;;;;5076962;28;20051;-88
2023/10/24 00:56:52;;;;;;;14.90;6.40;;;11.70;99.90;;;;;;5077260;28;20039;-88
2023/10/24 00:59:21;;;;;;;14.15;7.55;;;11.70;99.90;;;;;;5083120;28;20050;-88
2023/10/24 01:01:47;;;;;;;13.80;6.95;;;11.70;99.90;;;;;;5077295;28;20144;-88
2023/10/24 01:04:13;;;;;;;13.27;6.93;;;11.70;99.90;;;;;;5093663;28;20512;-88
2023/10/24 01:06:38;;;;;;;13.43;6.85;;;11.70;99.90;;;;;;5093646;28;20063;-88
2023/10/24 01:09:05;;;;;;;13.70;6.53;;;11.70;99.90;;;;;;5076964;28;20043;-88
2023/10/24 01:11:31;;;;;;;13.40;7.13;;;11.70;99.90;;;;;;5076809;28;20110;-88
2023/10/24 01:13:59;;;;;;;13.02;7.45;;;11.70;99.90;;;;;;5077097;28;20054;-89
2023/10/24 01:16:25;;;;;;;11.23;6.25;;;11.70;99.90;;;;;;5093659;28;20491;-88
2023/10/24 01:18:50;;;;;;;12.82;6.80;;;11.70;99.90;;;;;;5093588;28;20040;-89
2023/10/24 01:21:16;;;;;;;25.52;8.13;;;11.70;99.90;;;;;;5076437;28;20047;-88
2023/10/24 01:23:43;;;;;;;13.55;6.82;;;11.70;99.90;;;;;;5093125;28;20063;-88
2023/10/24 01:26:26;;;;;;;13.38;6.38;;;11.70;99.90;;;;;;5058821;28;20047;-88
2023/10/24 01:28:52;;;;;;;14.10;7.68;;;11.70;99.90;;;;;;5093689;28;20067;-89
2023/10/24 01:31:18;;;;;;;19.50;17.40;;;11.70;99.90;;;;;;5093127;28;20461;-89
2023/10/24 01:33:43;;;;;;;11.27;5.45;;;11.80;99.90;;;;;;5076647;28;20042;-88
2023/10/24 01:36:09;;;;;;;20.33;17.05;;;11.80;99.90;;;;;;5093751;28;20063;-88
2023/10/24 01:38:34;;;;;;;14.23;7.32;;;11.90;99.90;;;;;;5093577;28;20449;-88
2023/10/24 01:41:00;;;;;;;13.15;6.30;;;11.80;99.90;;;;;;5076556;28;20036;-88
2023/10/24 01:43:25;;;;;;;13.90;7.10;;;11.80;99.90;;;;;;5093546;28;20047;-88
2023/10/24 01:45:51;;;;;;;13.63;7.07;;;11.80;99.90;;;;;;5076642;28;20395;-88
2023/10/24 01:48:18;;;;;;;13.75;5.80;;;11.80;99.90;;;;;;5094320;28;20042;-88
2023/10/24 01:50:44;;;;;;;11.48;6.22;;;11.80;99.90;;;;;;5096679;28;20640;-88
2023/10/24 01:53:10;;;;;;;14.68;6.93;;;11.80;99.90;;;;;;5094925;28;20035;-88
2023/10/24 01:55:35;;;;;;;14.25;7.03;;;11.80;99.90;;;;;;5076430;28;20093;-88
2023/10/24 01:58:01;;;;;;;13.25;7.50;;;11.70;99.90;;;;;;5093757;28;20035;-88
2023/10/24 02:00:26;;;;;;;13.15;7.00;;;11.80;99.90;;;;;;5076096;28;20070;-88
2023/10/24 02:02:53;;;;;;;14.90;7.35;;;11.70;99.90;;;;;;5093325;28;20100;-88
2023/10/24 02:05:19;;;;;;;13.40;6.75;;;11.70;99.90;;;;;;5076207;28;20059;-88
2023/10/24 02:07:45;;;;;;;13.23;7.45;;;11.80;99.90;;;;;;5093128;28;20499;-88
2023/10/24 02:10:10;;;;;;;13.35;6.55;;;11.80;99.90;;;;;;5075961;28;20061;-88
2023/10/24 02:12:36;;;;;;;17.00;7.78;;;11.70;99.90;;;;;;5093280;28;20036;-88
2023/10/24 02:15:04;;;;;;;16.42;8.02;;;11.80;99.90;;;;;;5093190;28;20071;-88
2023/10/24 02:17:29;;;;;;;21.15;18.10;;;11.80;99.90;;;;;;5095982;28;20118;-88
2023/10/24 02:19:55;;;;;;;19.60;17.50;;;11.90;99.90;;;;;;5079799;28;20114;-87
2023/10/24 02:22:21;;;;;;;16.05;6.93;;;11.90;99.90;;;;;;5086611;28;20506;-87
2023/10/24 02:24:46;;;;;;;15.13;6.90;;;11.90;99.90;;;;;;5079685;28;20039;-87
2023/10/24 02:27:12;;;;;;;14.50;7.22;;;11.80;99.90;;;;;;5079863;28;20040;-88
2023/10/24 02:29:38;;;;;;;11.32;5.05;;;11.90;99.90;;;;;;5079802;28;20401;-88
2023/10/24 02:32:05;;;;;;;14.02;7.03;;;11.80;99.90;;;;;;5079909;28;20521;-87
2023/10/24 02:34:30;;;;;;;16.25;7.25;;;11.80;99.90;;;;;;5079596;28;20498;-87
2023/10/24 02:36:56;;;;;;;14.52;7.35;;;11.80;99.90;;;;;;5096111;28;20039;-87
2023/10/24 02:39:22;;;;;;;13.98;7.32;;;11.80;99.90;;;;;;5096229;28;20066;-88
2023/10/24 02:41:47;;;;;;;13.48;6.57;;;11.80;99.90;;;;;;5096346;28;20035;-88
2023/10/24 02:44:13;;;;;;;17.20;8.00;;;11.90;99.90;;;;;;5096124;28;20525;-88
2023/10/24 02:46:39;;;;;;;12.32;5.97;;;11.80;99.90;;;;;;5079484;28;20028;-88
2023/10/24 02:49:04;;;;;;;19.75;17.65;;;11.90;99.90;;;;;;5095968;28;20031;-88
2023/10/24 02:51:30;;;;;;;13.88;7.68;;;11.90;99.90;;;;;;5079300;28;20039;-88
2023/10/24 02:53:56;;;;;;;12.38;5.90;;;11.90;99.90;;;;;;5079322;28;20127;-88
2023/10/24 02:56:21;;;;;;;13.00;7.18;;;11.90;99.90;;;;;;5096101;28;20092;-88
2023/10/24 02:58:47;;;;;;;19.27;17.02;;;11.90;99.90;;;;;;5079286;28;20086;-88
2023/10/24 03:01:12;;;;;;;12.40;6.38;;;12.00;99.90;;;;;;5095861;28;20035;-88
2023/10/24 03:03:38;;;;;;;12.40;6.40;;;12.00;99.90;;;;;;5095867;28;20480;-88
2023/10/24 03:06:16;;;;;;;15.98;7.05;;;11.90;99.90;;;;;;5078960;28;20039;-88
2023/10/24 03:08:42;;;;;;;13.25;6.32;;;11.90;99.90;;;;;;5095945;28;20047;-88
2023/10/24 03:11:08;;;;;;;14.65;6.15;;;11.90;99.90;;;;;;5095864;28;20406;-88
2023/10/24 03:13:35;;;;;;;20.27;17.73;;;11.90;99.90;;;;;;5078742;28;20118;-88
2023/10/24 03:16:04;;;;;;;15.60;7.25;;;12.00;99.90;;;;;;5079201;28;20519;-88
2023/10/24 03:18:31;;;;;;;12.80;6.68;;;12.00;99.90;;;;;;5078673;28;20391;-88
2023/10/24 03:20:57;;;;;;;13.90;7.15;;;12.00;99.90;;;;;;5078475;28;20075;-88
2023/10/24 03:23:23;;;;;;;11.40;5.78;;;12.00;99.90;;;;;;5095272;28;20036;-88
2023/10/24 03:25:50;;;;;;;13.70;6.53;;;12.00;99.90;;;;;;5095382;28;20043;-88
2023/10/24 03:28:15;;;;;;;19.13;7.63;;;12.00;99.90;;;;;;5078741;28;20040;-88
2023/10/24 03:30:41;;;;;;;14.68;6.22;;;12.00;99.90;;;;;;5095278;28;20391;-88
2023/10/24 03:33:07;;;;;;;20.88;17.52;;;12.00;99.90;;;;;;5095342;28;20134;-88
2023/10/24 03:35:33;;;;;;;12.38;6.32;;;12.10;99.90;;;;;;5095859;28;20043;-88
2023/10/24 03:37:58;;;;;;;15.38;6.35;;;12.10;99.90;;;;;;5078351;28;20518;-87
2023/10/24 03:40:26;;;;;;;14.48;7.32;;;12.10;99.90;;;;;;5095045;28;20449;-88
2023/10/24 03:42:53;;;;;;;12.35;6.38;;;12.10;99.90;;;;;;5078201;28;20035;-88
2023/10/24 03:45:18;;;;;;;12.23;6.82;;;12.10;99.90;;;;;;5078131;28;20047;-88
2023/10/24 03:47:44;;;;;;;13.23;5.68;;;12.10;99.90;;;;;;5078212;28;20540;-88
2023/10/24 03:50:10;;;;;;;19.08;15.18;;;12.20;99.90;;;;;;5095041;28;20038;-88
2023/10/24 03:52:35;;;;;;;12.68;7.22;;;12.20;99.90;;;;;;5078316;28;20058;-88
2023/10/24 03:55:01;;;;;;;15.55;7.05;;;12.20;99.90;;;;;;5095301;28;20131;-88
2023/10/24 03:57:27;;;;;;;13.77;6.60;;;12.20;99.90;;;;;;5094860;28;20043;-88
2023/10/24 03:59:52;;;;;;;11.95;6.35;;;12.20;99.90;;;;;;5094669;28;20075;-87
2023/10/24 04:02:18;;;;;;;11.98;7.30;;;12.20;99.90;;;;;;5078051;28;20043;-88
2023/10/24 04:04:43;;;;;;;10.50;5.95;;;12.20;99.90;;;;;;5077902;28;20517;-88
2023/10/24 04:07:09;;;;;;;11.75;6.25;;;12.20;99.90;;;;;;5078151;28;20047;-87
2023/10/24 04:09:34;;;;;;;9.73;5.82;;;12.20;99.90;;;;;;5078402;28;20038;-88
2023/10/24 04:12:00;;;;;;;10.80;6.35;;;12.20;99.90;;;;;;5079028;28;20905;-88
2023/10/24 04:14:25;;;;;;;17.17;14.95;;;12.20;99.90;;;;;;5079456;28;20036;-88
2023/10/24 04:16:51;;;;;;;11.60;6.22;;;12.30;99.90;;;;;;5078088;28;20043;-87
2023/10/24 04:19:17;;;;;;;8.93;4.78;;;12.30;99.90;;;;;;5094416;28;20051;-87
2023/10/24 04:21:42;;;;;;;10.85;4.63;;;12.30;99.90;;;;;;5077160;28;20031;-88
2023/10/24 04:24:08;;;;;;;10.82;5.20;;;12.30;99.90;;;;;;5076642;28;20067;-87
2023/10/24 04:26:34;;;;;;;13.73;5.47;;;12.30;99.90;;;;;;5093439;28;20127;-87
2023/10/24 04:29:00;;;;;;;13.60;11.20;;;12.30;99.90;;;;;;5078466;28;20035;-84
2023/10/24 04:31:25;;;;;;;11.60;5.30;;;12.40;99.90;;;;;;5080582;28;20039;-87
2023/10/24 04:33:51;;;;;;;10.88;5.43;;;12.40;99.90;;;;;;5077646;28;20042;-87
2023/10/24 04:36:16;;;;;;;7.80;3.85;;;12.30;99.90;;;;;;5094550;28;20569;-87
2023/10/24 04:38:42;;;;;;;11.60;4.38;;;12.30;99.90;;;;;;5077104;28;20046;-87
2023/10/24 04:41:08;;;;;;;8.75;4.82;;;12.30;99.90;;;;;;5094958;28;20043;-86
2023/10/24 04:43:33;;;;;;;8.75;4.55;;;12.30;99.90;;;;;;5076682;28;20075;-87
2023/10/24 04:45:59;;;;;;;10.65;4.65;;;12.30;99.90;;;;;;5083346;28;20032;-87
2023/10/24 04:48:25;;;;;;;9.80;4.95;;;12.30;99.90;;;;;;5083158;28;20109;-87
2023/10/24 04:50:51;;;;;;;9.73;4.65;;;12.30;99.90;;;;;;5091372;28;20032;-87
2023/10/24 04:53:16;;;;;;;9.20;4.53;;;12.30;99.90;;;;;;5082935;28;20621;-87
2023/10/24 04:55:42;;;;;;;13.60;9.30;;;12.30;99.90;;;;;;5074473;28;20047;-87
2023/10/24 04:58:08;;;;;;;10.45;4.93;;;12.40;99.90;;;;;;5074863;28;20043;-87
2023/10/24 05:00:34;;;;;;;9.88;3.72;;;12.40;99.90;;;;;;5076377;28;20450;-87
2023/10/24 05:03:00;;;;;;;10.98;4.05;;;12.30;99.90;;;;;;5077158;28;20036;-88
2023/10/24 05:05:27;;;;;;;10.15;4.35;;;12.30;99.90;;;;;;5093570;28;20044;-88
2023/10/24 05:07:53;;;;;;;10.77;4.32;;;12.30;99.90;;;;;;5076847;28;20036;-87
2023/10/24 05:10:19;;;;;;;7.97;4.38;;;12.30;99.90;;;;;;5093251;28;20035;-87
2023/10/24 05:12:45;;;;;;;14.52;10.00;;;12.40;99.90;;;;;;5093482;28;20123;-87
2023/10/24 05:15:11;;;;;;;11.85;9.15;;;12.40;99.90;;;;;;5093651;28;20063;-87
2023/10/24 05:17:36;;;;;;;9.32;4.72;;;12.50;99.90;;;;;;5076978;28;20424;-87
2023/10/24 05:20:03;;;;;;;8.70;4.00;;;12.40;99.90;;;;;;5093521;28;20612;-87
2023/10/24 05:22:29;;;;;;;10.50;4.15;;;12.40;99.90;;;;;;5076443;28;20491;-87
2023/10/24 05:24:55;;;;;;;8.20;4.28;;;12.40;99.90;;;;;;5076447;28;20118;-87
2023/10/24 05:27:21;;;;;;;9.18;4.53;;;12.40;99.90;;;;;;5093456;28;20180;-87
2023/10/24 05:29:46;;;;;;;9.55;4.20;;;12.40;99.90;;;;;;5076259;28;20031;-87
2023/10/24 05:32:12;;;;;;;9.55;4.18;;;12.30;99.90;;;;;;5093597;28;20031;-87
2023/10/24 05:34:38;;;;;;;8.52;4.13;;;12.30;99.90;;;;;;5076944;28;20036;-87
2023/10/24 05:37:04;;;;;;;12.00;8.30;;;12.30;99.90;;;;;;5076597;28;20379;-87
2023/10/24 05:39:30;;;;;;;12.73;4.75;;;12.30;99.90;;;;;;5076309;28;20093;-87
2023/10/24 05:41:56;;;;;;;9.93;3.38;;;12.40;99.90;;;;;;5093126;28;20051;-87
2023/10/24 05:44:22;;;;;;;9.30;3.40;;;12.30;99.90;;;;;;5092904;28;20040;-87
2023/10/24 05:46:49;;;;;;;10.50;4.15;;;12.30;99.90;;;;;;5076673;28;20040;-87
2023/10/24 05:49:14;;;;;;;7.68;3.83;;;12.30;99.90;;;;;;5076058;28;20032;-87
2023/10/24 05:51:40;;;;;;;12.68;9.00;;;12.20;99.90;;;;;;5094904;28;20047;-88
2023/10/24 05:54:05;;;;;;;8.80;4.32;;;12.30;99.90;;;;;;5083573;27;20036;-87
2023/10/24 05:56:32;;;;;;;11.88;4.22;;;12.30;99.90;;;;;;5087525;27;20030;-87
2023/10/24 05:58:58;;;;;;;12.05;3.88;;;12.20;99.90;;;;;;5098996;28;20035;-88
2023/10/24 06:01:24;;;;;;;9.93;4.75;;;12.20;99.90;;;;;;5080101;28;20035;-87
2023/10/24 06:03:49;;;;;;;10.25;4.40;;;12.20;99.90;;;;;;5096961;28;20039;-87
2023/10/24 06:06:16;;;;;;;10.20;4.30;;;12.20;99.90;;;;;;5080078;28;20031;-87
2023/10/24 06:08:42;;;;;;;9.73;4.28;;;12.20;99.90;;;;;;5080050;28;20040;-88
2023/10/24 06:11:07;;;;;;;8.20;3.47;;;12.20;99.90;;;;;;5096840;28;20047;-88
2023/10/24 06:13:33;;;;;;;11.73;3.95;;;12.20;99.90;;;;;;5096652;28;20039;-88
2023/10/24 06:16:11;;;;;;;8.85;3.50;;;12.20;99.90;;;;;;5097090;28;20039;-87
2023/10/24 06:18:37;;;;;;;10.55;4.10;;;12.20;99.90;;;;;;5096836;28;20528;-88
2023/10/24 06:21:05;;;;;;;8.30;3.70;;;12.20;99.90;;;;;;5098858;28;20039;-87
2023/10/24 06:23:31;;;;;;;7.88;2.92;;;12.20;99.90;;;;;;5077284;28;20051;-88
2023/10/24 06:25:57;;;;;;;7.30;3.28;;;12.20;99.90;;;;;;5076942;28;20039;-87
2023/10/24 06:28:23;;;;;;;7.43;3.45;;;12.10;99.90;;;;;;5076709;28;20032;-87
2023/10/24 06:30:58;;;;;;;6.90;2.95;;;12.10;99.90;;;;;;5100085;28;20042;-88
2023/10/24 06:33:23;;;;;;;7.40;2.78;;;12.10;99.90;;;;;;5097653;28;20045;-88
2023/10/24 06:35:49;;;;;;;9.70;6.95;;;12.10;99.90;;;;;;5085033;28;20063;-87
2023/10/24 06:38:15;;;;;;;7.72;3.17;;;12.20;99.90;;;;;;5088809;28;20067;-87
2023/10/24 06:40:45;;;;;;;8.48;3.08;;;12.20;99.90;;;;;;5079282;28;20042;-87
2023/10/24 06:43:11;;;;;;;6.03;2.60;;;12.20;99.90;;;;;;5079928;28;20512;-87
2023/10/24 06:45:37;;;;;;;9.82;6.95;;;12.20;99.90;;;;;;5095226;28;20040;-87
2023/10/24 06:48:03;;;;;;;6.15;2.70;;;12.20;99.90;;;;;;5079497;28;20040;-88
2023/10/24 06:50:28;;;;;;;10.27;7.00;;;12.20;99.90;;;;;;5095995;28;20048;-87
2023/10/24 06:52:54;;;;;;;7.53;3.60;;;12.20;99.90;;;;;;5082556;28;20028;-88
2023/10/24 06:55:20;;;;;;;9.98;3.38;;;12.20;99.90;;;;;;5098177;28;20134;-87
2023/10/24 06:57:46;;;;;;;7.88;3.13;;;12.20;99.90;;;;;;5079622;28;20066;-87
2023/10/24 07:00:12;;;;;;;7.90;3.67;;;12.20;99.90;;;;;;5101588;28;20491;-87
2023/10/24 07:02:39;;;;;;;8.82;3.90;;;12.20;99.90;;;;;;5087178;28;20047;-88
2023/10/24 07:05:05;;;;;;;8.50;4.10;;;12.20;99.90;;;;;;5104583;28;20084;-87
2023/10/24 07:07:30;;;;;;;10.77;7.30;;;12.10;99.90;;;;;;5095797;28;20165;-87
2023/10/24 07:09:56;;;;;;;8.00;3.58;;;12.20;99.90;;;;;;5078832;28;20073;-87
2023/10/24 07:12:22;;;;;;;11.27;7.93;;;12.20;99.90;;;;;;5096089;28;20040;-88
2023/10/24 07:14:52;;;;;;;10.77;3.40;;;12.20;99.90;;;;;;5078969;28;20050;-87
2023/10/24 07:17:17;;;;;;;9.57;4.32;;;12.20;99.90;;;;;;5103981;28;20126;-88
2023/10/24 07:19:43;;;;;;;6.95;3.05;;;12.20;99.90;;;;;;5079058;28;20071;-88
2023/10/24 07:22:08;;;;;;;8.38;4.20;;;12.20;99.90;;;;;;5095575;28;20036;-88
2023/10/24 07:24:34;;;;;;;9.15;3.60;;;12.10;99.90;;;;;;5095286;28;20470;-88
2023/10/24 07:26:59;;;;;;;8.20;3.13;;;12.10;99.90;;;;;;5078730;28;20067;-88
2023/10/24 07:29:27;;;;;;;7.88;3.42;;;12.10;99.90;;;;;;5078824;28;20042;-88
2023/10/24 07:31:53;;;;;;;8.70;3.85;;;12.10;99.90;;;;;;5081121;28;20075;-88
2023/10/24 07:34:19;;;;;;;9.27;4.25;;;12.00;99.90;;;;;;5080386;28;20082;-88
2023/10/24 07:36:44;;;;;;;9.10;3.67;;;12.10;99.90;;;;;;5078443;28;20039;-88
2023/10/24 07:39:10;;;;;;;11.02;4.35;;;12.00;99.90;;;;;;5078614;28;20035;-88
2023/10/24 07:41:36;;;;;;;7.32;2.95;;;12.10;99.90;;;;;;5095176;28;20122;-88
2023/10/24 07:44:01;;;;;;;9.02;4.20;;;12.00;99.90;;;;;;5078155;28;20040;-88
2023/10/24 07:46:27;;;;;;;10.88;3.95;;;12.10;99.90;;;;;;5103644;28;20040;-88
2023/10/24 07:48:52;;;;;;;9.70;3.70;;;12.10;99.90;;;;;;5094898;28;20070;-88
2023/10/24 07:51:18;;;;;;;10.13;4.50;;;12.10;99.90;;;;;;5103331;28;20114;-88
2023/10/24 07:53:44;;;;;;;11.02;4.15;;;12.10;99.90;;;;;;5101797;28;20035;-88
2023/10/24 07:56:10;;;;;;;10.13;4.82;;;12.10;99.90;;;;;;5078399;28;20091;-88
2023/10/24 07:58:36;;;;;;;9.45;3.55;;;12.10;99.90;;;;;;5095660;28;20425;-88
2023/10/24 08:01:04;;;;;;;9.32;4.47;;;12.00;99.90;;;;;;5082271;28;20039;-87
2023/10/24 08:03:30;;;;;;;10.18;4.00;;;12.10;99.90;;;;;;5078017;28;20051;-89
2023/10/24 08:05:55;;;;;;;10.02;4.20;;;12.00;99.90;;;;;;5077873;28;20044;-89
2023/10/24 08:08:21;;;;;;;10.98;4.03;;;12.10;99.90;;;;;;5086630;28;20084;-88
2023/10/24 08:10:46;;;;;;;7.88;3.33;;;12.10;99.90;;;;;;5086227;28;20063;-88
2023/10/24 08:13:12;;;;;;;9.18;3.67;;;12.10;99.90;;;;;;5099782;28;20031;-88
2023/10/24 08:15:37;;;;;;;11.48;5.03;;;12.00;99.90;;;;;;5094561;28;20069;-88
2023/10/24 08:18:03;;;;;;;10.77;4.57;;;12.10;99.90;;;;;;5077825;28;20046;-88
2023/10/24 08:20:29;;;;;;;10.68;4.28;;;12.10;99.90;;;;;;5077299;28;20070;-88
2023/10/24 08:22:54;;;;;;;11.43;4.47;;;12.10;99.90;;;;;;5085765;28;20459;-88
2023/10/24 08:25:20;;;;;;;11.43;5.43;;;12.10;99.90;;;;;;5077525;28;20129;-88
2023/10/24 08:27:46;;;;;;;10.75;4.60;;;12.10;99.90;;;;;;5077939;28;20039;-87
2023/10/24 08:30:11;;;;;;;10.13;4.82;;;12.10;99.90;;;;;;5077155;28;20092;-88
2023/10/24 08:32:37;;;;;;;11.90;4.13;;;12.10;99.90;;;;;;5102804;28;20451;-87
2023/10/24 08:35:03;;;;;;;7.85;3.60;;;12.10;99.90;;;;;;5077317;28;20384;-87
2023/10/24 08:37:29;;;;;;;12.13;9.35;;;12.10;99.90;;;;;;5077277;28;20490;-87
2023/10/24 08:39:55;;;;;;;10.10;4.43;;;12.20;99.90;;;;;;5077312;28;20130;-87
2023/10/24 08:42:21;;;;;;;9.57;3.90;;;12.20;99.90;;;;;;5094105;28;20036;-88
2023/10/24 08:44:49;;;;;;;11.68;9.27;;;12.20;99.90;;;;;;5102695;28;20085;-87
2023/10/24 08:47:16;;;;;;;9.15;3.80;;;12.30;99.90;;;;;;5094195;28;20039;-88
2023/10/24 08:49:42;;;;;;;9.20;4.25;;;12.20;99.90;;;;;;5084066;28;20039;-88
2023/10/24 08:52:08;;;;;;;8.45;4.10;;;12.20;99.90;;;;;;5094220;28;20044;-87
2023/10/24 08:54:34;;;;;;;9.73;4.93;;;12.20;99.90;;;;;;5094074;28;20127;-88
2023/10/24 08:57:02;;;;;;;10.07;4.93;;;12.20;99.90;;;;;;5086153;28;20075;-88
2023/10/24 08:59:31;;;;;;;9.32;3.80;;;12.20;99.90;;;;;;5077833;28;20048;-87
2023/10/24 09:01:56;;;;;;;8.77;4.15;;;12.20;99.90;;;;;;5082831;28;20410;-88
2023/10/24 09:04:22;;;;;;;8.57;3.80;;;12.20;99.90;;;;;;5093904;28;20035;-88
2023/10/24 09:06:48;;;;;;;9.05;4.25;;;12.20;99.90;;;;;;5100275;28;20122;-88
2023/10/24 09:09:15;;;;;;;9.38;7.38;;;12.20;99.90;;;;;;5082663;28;20516;-88
2023/10/24 09:11:58;;;;;;;8.13;3.85;;;12.30;99.90;;;;;;5077031;28;20079;-88
2023/10/24 09:14:28;;;;;;;9.73;4.00;;;12.30;99.90;;;;;;5085333;28;20044;-89
2023/10/24 09:16:57;;;;;;;8.20;3.20;;;12.30;99.90;;;;;;5076858;28;20042;-89
2023/10/24 09:19:23;;;;;;;8.65;3.20;;;12.20;99.90;;;;;;5077116;28;20406;-88
2023/10/24 09:21:52;;;;;;;6.63;3.15;;;12.20;99.90;;;;;;5076823;28;20495;-89
2023/10/24 09:24:19;;;;;;;6.82;2.95;;;12.20;99.90;;;;;;5074653;28;20574;-88
2023/10/24 09:26:56;;;;;;;7.88;3.17;;;12.20;99.90;;;;;;5101895;28;20114;-89
2023/10/24 09:29:24;;;;;;;10.55;6.72;;;12.20;99.90;;;;;;5076402;28;20035;-89
2023/10/24 09:31:51;;;;;;;8.40;3.20;;;12.30;99.90;;;;;;5093156;28;20116;-89
2023/10/24 09:34:17;;;;;;;7.60;2.88;;;12.40;99.90;;;;;;5077121;28;20456;-89
2023/10/24 09:36:44;;;;;;;7.88;3.05;;;12.30;99.90;;;;;;5076938;28;20078;-89
2023/10/24 09:39:13;;;;;;;8.30;3.70;;;12.30;99.90;;;;;;5093185;28;20062;-89
2023/10/24 09:41:43;;;;;;;7.00;3.22;;;12.30;99.90;;;;;;5093446;28;20039;-89
2023/10/24 09:44:09;;;;;;;6.72;3.00;;;12.30;99.90;;;;;;5076662;28;20067;-88
2023/10/24 09:46:35;;;;;;;5.88;2.22;;;12.30;99.90;;;;;;5084901;28;20502;-89
2023/10/24 09:49:06;;;;;;;7.05;2.97;;;12.30;99.90;;;;;;5096232;28;20036;-88
2023/10/24 09:51:35;;;;;;;7.78;2.90;;;12.30;99.90;;;;;;5074241;28;20039;-89
2023/10/24 09:54:03;;;;;;;6.70;2.78;;;12.30;99.90;;;;;;5073856;28;20042;-89
2023/10/24 09:56:29;;;;;;;6.80;2.97;;;12.30;99.90;;;;;;5082187;28;20452;-89
2023/10/24 09:58:55;;;;;;;6.90;2.72;;;12.30;99.90;;;;;;5076781;28;20509;-88
2023/10/24 10:01:28;;;;;;;7.53;3.17;;;12.30;99.90;;;;;;5081382;28;20035;-87
2023/10/24 10:03:58;;;;;;;8.60;5.80;;;12.30;99.90;;;;;;5074021;28;20073;-90
2023/10/24 10:06:28;;;;;;;8.20;3.03;;;12.40;99.90;;;;;;5080756;28;20075;-89
2023/10/24 10:08:58;;;;;;;8.80;2.97;;;12.30;99.90;;;;;;5073681;28;20031;-89
2023/10/24 10:11:30;;;;;;;8.07;3.55;;;12.30;99.90;;;;;;5073608;28;20042;-89
2023/10/24 10:14:42;;;;;;;9.57;6.53;;;12.30;99.90;;;;;;5073820;28;20054;-89
2023/10/24 10:17:19;;;;;;;7.25;3.28;;;12.40;99.90;;;;;;4992742;28;20099;-88
2023/10/24 10:20:13;;;;;;;6.90;3.47;;;12.30;99.90;;;;;;4992507;28;20038;-89
2023/10/24 10:22:55;;;;;;;6.75;2.92;;;12.30;99.90;;;;;;5052703;28;20040;-89
2023/10/24 10:25:37;;;;;;;9.40;6.47;;;12.30;99.90;;;;;;5108963;28;20048;-88
2023/10/24 10:28:36;;;;;;;10.23;6.95;;;12.40;99.90;;;;;;5075033;28;20040;-88
2023/10/24 10:31:47;;;;;;;7.75;3.33;;;12.50;99.90;;;;;;5085309;28;20042;-87
2023/10/24 10:34:13;;;;;;;8.30;3.67;;;12.50;99.90;;;;;;5093401;28;20449;-88
2023/10/24 10:36:41;;;;;;;9.05;3.63;;;12.40;99.90;;;;;;5076670;28;20031;-89
2023/10/24 10:39:10;;;;;;;10.77;3.40;;;12.50;99.90;;;;;;5079704;28;20039;-87
2023/10/24 10:41:38;;;;;;;8.85;4.05;;;12.50;99.90;;;;;;5104959;28;20036;-88
2023/10/24 10:44:38;;;;;;;10.38;7.28;;;12.50;99.90;;;;;;5101145;28;20487;-89
2023/10/24 10:47:06;;;;;;;6.70;3.10;;;12.70;99.90;;;;;;5100982;28;20039;-89
2023/10/24 10:49:54;;;;;;;8.30;3.50;;;12.70;99.90;;;;;;5079364;28;20114;-89
2023/10/24 10:52:32;;;;;;;9.20;3.90;;;12.70;99.90;;;;;;5079358;28;20042;-88
2023/10/24 10:55:12;;;;;;;8.85;3.90;;;12.70;99.90;;;;;;5096442;28;20114;-88
2023/10/24 10:57:54;;;;;;;10.90;4.40;;;12.70;99.90;;;;;;5079198;28;20046;-89
2023/10/24 11:00:25;;;;;;;10.70;4.90;;;12.80;99.90;;;;;;5079327;28;20051;-88
2023/10/24 11:03:10;;;;;;;10.30;4.30;;;12.80;99.90;;;;;;5096306;28;20091;-88
2023/10/24 11:05:35;;;;;;;10.57;8.30;;;12.80;99.90;;;;;;5079003;28;20387;-88
2023/10/24 11:08:02;;;;;;;9.98;4.80;;;12.90;99.90;;;;;;5079085;28;20043;-88
2023/10/24 11:11:00;;;;;;;9.93;5.13;;;12.90;99.90;;;;;;5078944;28;20044;-88
2023/10/24 11:13:35;;;;;;;10.75;4.70;;;12.90;99.90;;;;;;5086108;28;20128;-88
2023/10/24 11:16:02;;;;;;;9.45;4.18;;;12.90;99.90;;;;;;5079339;28;20071;-88
2023/10/24 11:18:32;;;;;;;9.65;4.68;;;13.00;99.90;;;;;;5078894;28;20518;-89
2023/10/24 11:20:58;;;;;;;10.48;5.30;;;13.00;99.90;;;;;;5083574;28;20050;-88
2023/10/24 11:23:26;;;;;;;12.00;4.93;;;13.00;99.90;;;;;;5103003;28;20047;-88
2023/10/24 11:25:53;;;;;;;10.30;5.25;;;13.10;99.90;;;;;;5083384;28;20040;-89
2023/10/24 11:28:19;;;;;;;10.00;5.63;;;13.20;99.90;;;;;;5098661;27;20051;-89
2023/10/24 11:30:44;;;;;;;8.13;4.15;;;13.20;99.90;;;;;;5078159;28;20032;-89
2023/10/24 11:33:10;;;;;;;10.07;4.75;;;13.30;99.90;;;;;;5078458;28;20520;-89
2023/10/24 11:35:36;;;;;;;9.10;4.15;;;13.30;99.90;;;;;;5095210;28;20118;-89
2023/10/24 11:38:02;;;;;;;10.68;8.70;;;13.30;99.90;;;;;;5078353;28;20042;-88
2023/10/24 11:40:28;;;;;;;12.10;5.30;;;13.40;99.90;;;;;;5077013;28;20039;-88
2023/10/24 11:43:06;;;;;;;10.10;5.30;;;13.40;99.90;;;;;;5093926;28;20089;-89
2023/10/24 11:45:32;;;;;;;11.57;5.20;;;13.30;99.90;;;;;;5078500;28;20044;-89
2023/10/24 11:47:58;;;;;;;9.85;5.00;;;13.40;99.90;;;;;;5086901;28;20084;-89
2023/10/24 11:50:37;;;;;;;11.38;4.20;;;13.40;99.90;;;;;;5078020;28;20387;-89
2023/10/24 11:53:03;;;;;;;10.57;4.85;;;13.30;99.90;;;;;;5078170;28;20043;-89
2023/10/24 11:55:31;;;;;;;10.25;4.18;;;13.40;99.90;;;;;;5078597;28;20425;-89
2023/10/24 11:57:59;;;;;;;11.32;6.03;;;13.40;99.90;;;;;;5086625;28;20495;-89
2023/10/24 12:00:27;;;;;;;9.73;4.40;;;13.40;99.90;;;;;;5101611;28;20048;-89
2023/10/24 12:02:53;;;;;;;8.60;4.13;;;13.40;99.90;;;;;;5078745;28;20042;-89
2023/10/24 12:05:19;;;;;;;9.25;4.95;;;13.40;99.90;;;;;;5094558;28;20047;-88
2023/10/24 12:07:59;;;;;;;11.75;5.70;;;13.50;99.90;;;;;;5074763;28;20078;-89
2023/10/24 12:10:33;;;;;;;10.80;5.22;;;13.50;99.90;;;;;;5091418;28;20079;-89
2023/10/24 12:13:03;;;;;;;10.20;8.57;;;13.50;99.90;;;;;;5074944;28;20096;-89
2023/10/24 12:15:30;;;;;;;9.32;5.22;;;13.60;99.90;;;;;;5075377;28;20138;-89
2023/10/24 12:18:00;;;;;;;11.40;8.32;;;13.60;99.90;;;;;;5093441;28;20127;-89
2023/10/24 12:20:26;;;;;;;10.95;5.10;;;13.60;99.90;;;;;;5094286;28;20071;-89
2023/10/24 12:22:51;;;;;;;9.85;4.25;;;13.50;99.90;;;;;;5086060;28;20050;-89
2023/10/24 12:25:17;;;;;;;9.45;4.45;;;13.50;99.90;;;;;;5094593;28;20036;-89
2023/10/24 12:27:46;;;;;;;7.68;3.75;;;13.50;99.90;;;;;;5077748;28;20039;-89
2023/10/24 12:30:13;;;;;;;11.52;9.27;;;13.50;99.90;;;;;;5077467;28;20482;-89
2023/10/24 12:32:41;;;;;;;10.48;5.18;;;13.50;99.90;;;;;;5094343;28;20044;-89
2023/10/24 12:35:08;;;;;;;9.50;4.90;;;13.50;99.90;;;;;;5102613;28;20044;-89
2023/10/24 12:37:35;;;;;;;12.07;5.63;;;13.50;99.90;;;;;;5094677;28;20035;-88
2023/10/24 12:40:02;;;;;;;11.85;9.73;;;13.50;99.90;;;;;;5085604;28;20047;-89
2023/10/24 12:42:28;;;;;;;11.13;9.52;;;13.50;99.90;;;;;;5086162;28;20043;-89